sensor_id;sensor_type;location;lat;lon;timestamp;temperature;humidity
23520;DHT22;11936;50.820;4.336;2023-05-16T00:01:06;11.00;99.90
23520;DHT22;11936;50.820;4.336;2023-05-16T00:03:32;10.90;99.90
23520;DHT22;11936;50.820;4.336;2023-05-16T00:05:58;10.90;99.90
23520;DHT22;11936;50.820;4.336;2023-05-16T00:08:27;10.80;99.90
23520;DHT22;11936;50.820;4.336;2023-05-16T00:10:52;10.80;99.90
23520;DHT22;11936;50.820;4.336;2023-05-16T00:13:19;10.90;99.90
23520;DHT22;11936;50.820;4.336;2023-05-16T00:15:51;10.70;99.90
23520;DHT22;11936;50.820;4.336;2023-05-16T00:18:18;10.50;99.90
23520;DHT22;11936;50.820;4.336;2023-05-16T00:20:44;10.70;99.90
23520;DHT22;11936;50.820;4.336;2023-05-16T00:23:10;10.60;99.90
23520;DHT22;11936;50.820;4.336;2023-05-16T00:25:37;10.60;99.90
23520;DHT22;11936;50.820;4.336;2023-05-16T00:28:03;10.70;99.90
23520;DHT22;11936;50.820;4.336;2023-05-16T00:30:28;10.60;99.90
23520;DHT22;11936;50.820;4.336;2023-05-16T00:32:54;10.50;99.90
23520;DHT22;11936;50.820;4.336;2023-05-16T00:35:20;10.50;99.90
23520;DHT22;11936;50.820;4.336;2023-05-16T00:37:46;10.70;99.90
23520;DHT22;11936;50.820;4.336;2023-05-16T00:40:12;10.70;99.90
23520;DHT22;11936;50.820;4.336;2023-05-16T00:42:38;10.60;99.90
23520;DHT22;11936;50.820;4.336;2023-05-16T00:45:05;10.60;99.90
23520;DHT22;11936;50.820;4.336;2023-05-16T00:47:31;10.80;99.90
23520;DHT22;11936;50.820;4.336;2023-05-16T00:49:57;10.80;99.90
23520;DHT22;11936;50.820;4.336;2023-05-16T00:52:23;10.80;99.90
23520;DHT22;11936;50.820;4.336;2023-05-16T00:54:50;10.90;99.90
23520;DHT22;11936;50.820;4.336;2023-05-16T00:57:16;10.90;99.90
23520;DHT22;11936;50.820;4.336;2023-05-16T00:59:43;10.80;99.90
23520;DHT22;11936;50.820;4.336;2023-05-16T01:02:10;10.60;99.90
23520;DHT22;11936;50.820;4.336;2023-05-16T01:04:37;10.60;99.90
23520;DHT22;11936;50.820;4.336;2023-05-16T01:07:03;10.70;99.90
23520;DHT22;11936;50.820;4.336;2023-05-16T01:09:29;10.60;99.90
23520;DHT22;11936;50.820;4.336;2023-05-16T01:25:56;10.80;99.90
23520;DHT22;11936;50.820;4.336;2023-05-16T01:28:23;10.80;99.90
23520;DHT22;11936;50.820;4.336;2023-05-16T01:30:50;10.90;99.90
23520;DHT22;11936;50.820;4.336;2023-05-16T01:33:15;10.90;99.90
23520;DHT22;11936;50.820;4.336;2023-05-16T01:38:29;10.80;99.90
23520;DHT22;11936;50.820;4.336;2023-05-16T01:41:20;10.70;99.90
23520;DHT22;11936;50.820;4.336;2023-05-16T01:43:50;10.60;99.90
23520;DHT22;11936;50.820;4.336;2023-05-16T01:46:25;10.40;99.90
23520;DHT22;11936;50.820;4.336;2023-05-16T01:49:03;10.30;99.90
23520;DHT22;11936;50.820;4.336;2023-05-16T01:51:31;10.30;99.90
23520;DHT22;11936;50.820;4.336;2023-05-16T01:54:05;10.40;99.90
23520;DHT22;11936;50.820;4.336;2023-05-16T01:56:31;10.50;99.90
23520;DHT22;11936;50.820;4.336;2023-05-16T01:58:58;10.50;99.90
23520;DHT22;11936;50.820;4.336;2023-05-16T02:01:25;10.60;99.90
23520;DHT22;11936;50.820;4.336;2023-05-16T02:03:51;10.70;99.90
23520;DHT22;11936;50.820;4.336;2023-05-16T02:06:16;10.80;99.90
23520;DHT22;11936;50.820;4.336;2023-05-16T02:08:42;10.80;99.90
23520;DHT22;11936;50.820;4.336;2023-05-16T02:11:07;10.80;99.90
23520;DHT22;11936;50.820;4.336;2023-05-16T02:13:33;10.80;99.90
23520;DHT22;11936;50.820;4.336;2023-05-16T02:15:59;10.90;99.90
23520;DHT22;11936;50.820;4.336;2023-05-16T02:18:25;11.00;99.90
23520;DHT22;11936;50.820;4.336;2023-05-16T02:20:52;11.00;99.90
23520;DHT22;11936;50.820;4.336;2023-05-16T02:23:18;10.60;99.90
23520;DHT22;11936;50.820;4.336;2023-05-16T02:25:44;10.60;99.90
23520;DHT22;11936;50.820;4.336;2023-05-16T02:28:09;10.50;99.90
23520;DHT22;11936;50.820;4.336;2023-05-16T02:30:35;10.60;99.90
23520;DHT22;11936;50.820;4.336;2023-05-16T02:33:00;10.60;99.90
23520;DHT22;11936;50.820;4.336;2023-05-16T02:35:26;10.70;99.90
23520;DHT22;11936;50.820;4.336;2023-05-16T02:37:52;10.70;99.90
23520;DHT22;11936;50.820;4.336;2023-05-16T02:40:17;10.50;99.90
23520;DHT22;11936;50.820;4.336;2023-05-16T02:42:43;10.20;99.90
23520;DHT22;11936;50.820;4.336;2023-05-16T02:45:09;10.10;99.90
23520;DHT22;11936;50.820;4.336;2023-05-16T02:47:34;10.20;99.90
23520;DHT22;11936;50.820;4.336;2023-05-16T02:50:00;10.30;99.90
23520;DHT22;11936;50.820;4.336;2023-05-16T02:52:26;10.20;99.90
23520;DHT22;11936;50.820;4.336;2023-05-16T02:54:51;10.40;99.90
23520;DHT22;11936;50.820;4.336;2023-05-16T02:57:17;10.30;99.90
23520;DHT22;11936;50.820;4.336;2023-05-16T02:59:43;10.20;99.90
23520;DHT22;11936;50.820;4.336;2023-05-16T03:02:08;10.20;99.90
23520;DHT22;11936;50.820;4.336;2023-05-16T03:04:34;10.30;99.90
23520;DHT22;11936;50.820;4.336;2023-05-16T03:06:59;10.40;99.90
23520;DHT22;11936;50.820;4.336;2023-05-16T03:09:25;10.20;99.90
23520;DHT22;11936;50.820;4.336;2023-05-16T03:11:51;10.10;99.90
23520;DHT22;11936;50.820;4.336;2023-05-16T03:14:16;10.20;99.90
23520;DHT22;11936;50.820;4.336;2023-05-16T03:16:42;10.20;99.90
23520;DHT22;11936;50.820;4.336;2023-05-16T03:19:09;10.30;99.90
23520;DHT22;11936;50.820;4.336;2023-05-16T03:21:35;10.20;99.90
23520;DHT22;11936;50.820;4.336;2023-05-16T03:24:03;10.30;99.90
23520;DHT22;11936;50.820;4.336;2023-05-16T03:26:29;10.20;99.90
23520;DHT22;11936;50.820;4.336;2023-05-16T03:28:55;10.00;99.90
23520;DHT22;11936;50.820;4.336;2023-05-16T03:31:20;10.10;99.90
23520;DHT22;11936;50.820;4.336;2023-05-16T03:33:46;10.10;99.90
23520;DHT22;11936;50.820;4.336;2023-05-16T03:36:12;9.90;99.90
23520;DHT22;11936;50.820;4.336;2023-05-16T03:38:37;9.90;99.90
23520;DHT22;11936;50.820;4.336;2023-05-16T03:41:03;10.00;99.90
23520;DHT22;11936;50.820;4.336;2023-05-16T03:43:29;10.10;99.90
23520;DHT22;11936;50.820;4.336;2023-05-16T03:45:54;10.20;99.90
23520;DHT22;11936;50.820;4.336;2023-05-16T03:48:20;10.30;99.90
23520;DHT22;11936;50.820;4.336;2023-05-16T03:50:46;10.40;99.90
23520;DHT22;11936;50.820;4.336;2023-05-16T03:53:12;10.40;99.90
23520;DHT22;11936;50.820;4.336;2023-05-16T03:55:38;10.20;99.90
23520;DHT22;11936;50.820;4.336;2023-05-16T03:58:03;10.20;99.90
23520;DHT22;11936;50.820;4.336;2023-05-16T04:00:29;10.40;99.90
23520;DHT22;11936;50.820;4.336;2023-05-16T04:02:55;10.50;99.90
23520;DHT22;11936;50.820;4.336;2023-05-16T04:05:21;10.60;99.90
23520;DHT22;11936;50.820;4.336;2023-05-16T04:07:46;10.60;99.90
23520;DHT22;11936;50.820;4.336;2023-05-16T04:10:13;10.70;99.90
23520;DHT22;11936;50.820;4.336;2023-05-16T04:12:39;10.70;99.90
23520;DHT22;11936;50.820;4.336;2023-05-16T04:15:05;10.60;99.90
23520;DHT22;11936;50.820;4.336;2023-05-16T04:17:32;10.50;99.90
23520;DHT22;11936;50.820;4.336;2023-05-16T04:19:58;10.50;99.90
23520;DHT22;11936;50.820;4.336;2023-05-16T04:22:24;10.50;99.90
23520;DHT22;11936;50.820;4.336;2023-05-16T04:24:50;10.50;99.90
23520;DHT22;11936;50.820;4.336;2023-05-16T04:27:15;10.60;99.90
23520;DHT22;11936;50.820;4.336;2023-05-16T04:29:41;10.70;99.90
23520;DHT22;11936;50.820;4.336;2023-05-16T04:32:07;10.60;99.90
23520;DHT22;11936;50.820;4.336;2023-05-16T04:34:33;10.40;99.90
23520;DHT22;11936;50.820;4.336;2023-05-16T04:37:03;10.30;99.90
23520;DHT22;11936;50.820;4.336;2023-05-16T04:39:30;10.30;99.90
23520;DHT22;11936;50.820;4.336;2023-05-16T04:41:55;10.50;99.90
23520;DHT22;11936;50.820;4.336;2023-05-16T04:44:24;10.40;99.90
23520;DHT22;11936;50.820;4.336;2023-05-16T04:46:50;10.40;99.90
23520;DHT22;11936;50.820;4.336;2023-05-16T04:49:16;10.50;99.90
23520;DHT22;11936;50.820;4.336;2023-05-16T04:51:42;10.40;99.90
23520;DHT22;11936;50.820;4.336;2023-05-16T04:54:07;10.40;99.90
23520;DHT22;11936;50.820;4.336;2023-05-16T04:56:33;10.50;99.90
23520;DHT22;11936;50.820;4.336;2023-05-16T04:58:58;10.30;99.90
23520;DHT22;11936;50.820;4.336;2023-05-16T05:01:24;10.20;99.90
23520;DHT22;11936;50.820;4.336;2023-05-16T05:03:50;10.20;99.90
23520;DHT22;11936;50.820;4.336;2023-05-16T05:06:16;10.40;99.90
23520;DHT22;11936;50.820;4.336;2023-05-16T05:08:42;10.50;99.90
23520;DHT22;11936;50.820;4.336;2023-05-16T05:11:07;10.40;99.90
23520;DHT22;11936;50.820;4.336;2023-05-16T05:13:33;10.20;99.90
23520;DHT22;11936;50.820;4.336;2023-05-16T05:15:59;10.20;99.90
23520;DHT22;11936;50.820;4.336;2023-05-16T05:18:26;10.40;99.90
23520;DHT22;11936;50.820;4.336;2023-05-16T05:20:52;10.40;99.90
23520;DHT22;11936;50.820;4.336;2023-05-16T05:23:17;10.30;99.90
23520;DHT22;11936;50.820;4.336;2023-05-16T05:25:44;10.40;99.90
23520;DHT22;11936;50.820;4.336;2023-05-16T05:28:10;10.40;99.90
23520;DHT22;11936;50.820;4.336;2023-05-16T05:30:36;10.30;99.90
23520;DHT22;11936;50.820;4.336;2023-05-16T05:33:01;10.40;99.90
23520;DHT22;11936;50.820;4.336;2023-05-16T05:35:27;10.40;99.90
23520;DHT22;11936;50.820;4.336;2023-05-16T05:37:52;10.40;99.90
23520;DHT22;11936;50.820;4.336;2023-05-16T05:40:18;10.30;99.90
23520;DHT22;11936;50.820;4.336;2023-05-16T05:42:44;10.20;99.90
23520;DHT22;11936;50.820;4.336;2023-05-16T05:45:10;10.30;99.90
23520;DHT22;11936;50.820;4.336;2023-05-16T05:47:35;10.50;99.90
23520;DHT22;11936;50.820;4.336;2023-05-16T05:50:02;10.70;99.90
23520;DHT22;11936;50.820;4.336;2023-05-16T05:52:28;10.80;99.90
23520;DHT22;11936;50.820;4.336;2023-05-16T05:54:54;10.80;99.90
23520;DHT22;11936;50.820;4.336;2023-05-16T05:57:19;10.90;99.90
23520;DHT22;11936;50.820;4.336;2023-05-16T05:59:45;10.80;99.90
23520;DHT22;11936;50.820;4.336;2023-05-16T06:02:11;10.70;99.90
23520;DHT22;11936;50.820;4.336;2023-05-16T06:04:37;10.60;99.90
23520;DHT22;11936;50.820;4.336;2023-05-16T06:07:03;10.70;99.90
23520;DHT22;11936;50.820;4.336;2023-05-16T06:09:29;10.90;99.90
23520;DHT22;11936;50.820;4.336;2023-05-16T06:11:55;10.90;99.90
23520;DHT22;11936;50.820;4.336;2023-05-16T06:14:21;11.00;99.90
23520;DHT22;11936;50.820;4.336;2023-05-16T06:16:48;11.10;99.90
23520;DHT22;11936;50.820;4.336;2023-05-16T06:19:13;11.10;99.90
23520;DHT22;11936;50.820;4.336;2023-05-16T06:21:41;11.00;99.90
23520;DHT22;11936;50.820;4.336;2023-05-16T06:24:07;11.00;99.90
23520;DHT22;11936;50.820;4.336;2023-05-16T06:26:33;11.10;99.90
23520;DHT22;11936;50.820;4.336;2023-05-16T06:28:58;11.20;99.90
23520;DHT22;11936;50.820;4.336;2023-05-16T06:31:24;11.20;99.90
23520;DHT22;11936;50.820;4.336;2023-05-16T06:33:50;11.40;99.90
23520;DHT22;11936;50.820;4.336;2023-05-16T06:36:15;11.30;99.90
23520;DHT22;11936;50.820;4.336;2023-05-16T06:38:41;11.40;99.90
23520;DHT22;11936;50.820;4.336;2023-05-16T06:41:07;11.60;99.90
23520;DHT22;11936;50.820;4.336;2023-05-16T06:43:34;11.60;99.90
23520;DHT22;11936;50.820;4.336;2023-05-16T06:45:59;11.40;99.90
23520;DHT22;11936;50.820;4.336;2023-05-16T06:48:25;11.40;99.90
23520;DHT22;11936;50.820;4.336;2023-05-16T06:50:51;11.60;99.90
23520;DHT22;11936;50.820;4.336;2023-05-16T06:53:17;11.70;99.90
23520;DHT22;11936;50.820;4.336;2023-05-16T06:55:43;11.80;99.90
23520;DHT22;11936;50.820;4.336;2023-05-16T06:58:09;12.00;99.90
23520;DHT22;11936;50.820;4.336;2023-05-16T07:00:35;12.10;99.90
23520;DHT22;11936;50.820;4.336;2023-05-16T07:03:01;12.30;99.90
23520;DHT22;11936;50.820;4.336;2023-05-16T07:05:28;12.30;99.90
23520;DHT22;11936;50.820;4.336;2023-05-16T07:07:53;12.30;99.90
23520;DHT22;11936;50.820;4.336;2023-05-16T07:10:19;12.30;99.90
23520;DHT22;11936;50.820;4.336;2023-05-16T07:12:45;12.40;99.90
23520;DHT22;11936;50.820;4.336;2023-05-16T07:15:11;12.20;99.90
23520;DHT22;11936;50.820;4.336;2023-05-16T07:17:37;12.20;99.90
23520;DHT22;11936;50.820;4.336;2023-05-16T07:20:03;11.90;99.90
23520;DHT22;11936;50.820;4.336;2023-05-16T07:22:29;12.00;99.90
23520;DHT22;11936;50.820;4.336;2023-05-16T07:24:55;11.80;99.90
23520;DHT22;11936;50.820;4.336;2023-05-16T07:27:25;11.80;99.90
23520;DHT22;11936;50.820;4.336;2023-05-16T07:29:51;11.80;99.90
23520;DHT22;11936;50.820;4.336;2023-05-16T07:32:17;11.90;99.90
23520;DHT22;11936;50.820;4.336;2023-05-16T07:34:42;12.00;99.90
23520;DHT22;11936;50.820;4.336;2023-05-16T07:37:08;12.00;99.90
23520;DHT22;11936;50.820;4.336;2023-05-16T07:39:38;12.10;99.90
23520;DHT22;11936;50.820;4.336;2023-05-16T07:42:05;12.20;99.90
23520;DHT22;11936;50.820;4.336;2023-05-16T07:44:31;12.20;99.90
23520;DHT22;11936;50.820;4.336;2023-05-16T07:46:57;12.20;99.90
23520;DHT22;11936;50.820;4.336;2023-05-16T07:49:22;12.30;99.90
23520;DHT22;11936;50.820;4.336;2023-05-16T07:51:48;12.20;99.90
23520;DHT22;11936;50.820;4.336;2023-05-16T07:54:14;12.20;99.90
23520;DHT22;11936;50.820;4.336;2023-05-16T07:56:39;12.20;99.90
23520;DHT22;11936;50.820;4.336;2023-05-16T07:59:05;12.30;99.90
23520;DHT22;11936;50.820;4.336;2023-05-16T08:01:31;12.30;99.90
23520;DHT22;11936;50.820;4.336;2023-05-16T08:03:57;12.30;99.90
23520;DHT22;11936;50.820;4.336;2023-05-16T08:06:22;12.40;99.90
23520;DHT22;11936;50.820;4.336;2023-05-16T08:08:48;12.50;99.90
23520;DHT22;11936;50.820;4.336;2023-05-16T08:11:14;12.50;99.90
23520;DHT22;11936;50.820;4.336;2023-05-16T08:13:39;12.40;99.90
23520;DHT22;11936;50.820;4.336;2023-05-16T08:16:05;12.40;99.90
23520;DHT22;11936;50.820;4.336;2023-05-16T08:18:31;12.40;99.90
23520;DHT22;11936;50.820;4.336;2023-05-16T08:20:56;12.50;99.90
23520;DHT22;11936;50.820;4.336;2023-05-16T08:23:22;12.70;99.90
23520;DHT22;11936;50.820;4.336;2023-05-16T08:25:47;12.80;99.90
23520;DHT22;11936;50.820;4.336;2023-05-16T08:28:13;13.00;99.90
23520;DHT22;11936;50.820;4.336;2023-05-16T08:30:39;13.10;99.90
23520;DHT22;11936;50.820;4.336;2023-05-16T08:33:05;13.10;99.90
23520;DHT22;11936;50.820;4.336;2023-05-16T08:35:31;12.90;99.90
23520;DHT22;11936;50.820;4.336;2023-05-16T08:37:56;12.80;99.90
23520;DHT22;11936;50.820;4.336;2023-05-16T08:40:25;12.60;99.90
23520;DHT22;11936;50.820;4.336;2023-05-16T08:42:51;12.70;99.90
23520;DHT22;11936;50.820;4.336;2023-05-16T08:45:18;12.50;99.90
23520;DHT22;11936;50.820;4.336;2023-05-16T08:47:44;12.40;99.90
23520;DHT22;11936;50.820;4.336;2023-05-16T08:50:12;12.20;99.90
23520;DHT22;11936;50.820;4.336;2023-05-16T08:52:41;12.40;99.90
23520;DHT22;11936;50.820;4.336;2023-05-16T08:55:08;12.40;99.90
23520;DHT22;11936;50.820;4.336;2023-05-16T08:57:34;12.50;99.90
23520;DHT22;11936;50.820;4.336;2023-05-16T09:00:01;12.60;99.90
23520;DHT22;11936;50.820;4.336;2023-05-16T09:02:36;12.70;99.90
23520;DHT22;11936;50.820;4.336;2023-05-16T09:05:03;12.80;99.90
23520;DHT22;11936;50.820;4.336;2023-05-16T09:07:30;12.80;99.90
23520;DHT22;11936;50.820;4.336;2023-05-16T09:09:55;12.80;99.90
23520;DHT22;11936;50.820;4.336;2023-05-16T09:12:21;12.80;99.90
23520;DHT22;11936;50.820;4.336;2023-05-16T09:14:47;12.80;99.90
23520;DHT22;11936;50.820;4.336;2023-05-16T09:17:13;13.00;99.90
23520;DHT22;11936;50.820;4.336;2023-05-16T09:19:41;13.20;99.90
23520;DHT22;11936;50.820;4.336;2023-05-16T09:22:11;13.40;99.90
23520;DHT22;11936;50.820;4.336;2023-05-16T09:24:39;13.40;99.90
23520;DHT22;11936;50.820;4.336;2023-05-16T09:27:13;13.50;99.90
23520;DHT22;11936;50.820;4.336;2023-05-16T09:29:44;13.30;99.90
23520;DHT22;11936;50.820;4.336;2023-05-16T09:32:14;13.20;99.90
23520;DHT22;11936;50.820;4.336;2023-05-16T09:34:44;13.10;99.90
23520;DHT22;11936;50.820;4.336;2023-05-16T09:37:10;13.00;99.90
23520;DHT22;11936;50.820;4.336;2023-05-16T09:40:11;13.20;99.90
23520;DHT22;11936;50.820;4.336;2023-05-16T09:42:30;13.40;99.90
23520;DHT22;11936;50.820;4.336;2023-05-16T09:44:56;13.70;99.90
23520;DHT22;11936;50.820;4.336;2023-05-16T09:47:22;13.70;99.90
23520;DHT22;11936;50.820;4.336;2023-05-16T09:49:56;13.70;99.90
23520;DHT22;11936;50.820;4.336;2023-05-16T09:52:26;13.60;99.90
23520;DHT22;11936;50.820;4.336;2023-05-16T09:54:51;13.70;99.90
23520;DHT22;11936;50.820;4.336;2023-05-16T09:57:19;13.70;99.90
23520;DHT22;11936;50.820;4.336;2023-05-16T09:59:46;13.70;99.90
23520;DHT22;11936;50.820;4.336;2023-05-16T10:02:12;13.50;99.90
23520;DHT22;11936;50.820;4.336;2023-05-16T10:04:38;13.40;99.90
23520;DHT22;11936;50.820;4.336;2023-05-16T10:07:05;13.50;99.90
23520;DHT22;11936;50.820;4.336;2023-05-16T10:09:31;13.70;99.90
23520;DHT22;11936;50.820;4.336;2023-05-16T10:12:00;13.80;99.90
23520;DHT22;11936;50.820;4.336;2023-05-16T10:14:29;13.90;99.90
23520;DHT22;11936;50.820;4.336;2023-05-16T10:16:58;13.90;99.90
23520;DHT22;11936;50.820;4.336;2023-05-16T10:19:24;13.60;99.90
23520;DHT22;11936;50.820;4.336;2023-05-16T10:21:55;13.60;99.90
23520;DHT22;11936;50.820;4.336;2023-05-16T10:24:30;13.60;99.90
23520;DHT22;11936;50.820;4.336;2023-05-16T10:26:56;13.50;99.90
23520;DHT22;11936;50.820;4.336;2023-05-16T10:29:22;13.70;99.90
23520;DHT22;11936;50.820;4.336;2023-05-16T10:31:49;13.80;99.90
23520;DHT22;11936;50.820;4.336;2023-05-16T10:34:15;13.80;99.90
23520;DHT22;11936;50.820;4.336;2023-05-16T10:36:43;13.80;99.90
23520;DHT22;11936;50.820;4.336;2023-05-16T10:39:10;14.00;99.90
23520;DHT22;11936;50.820;4.336;2023-05-16T10:41:36;14.10;99.90
23520;DHT22;11936;50.820;4.336;2023-05-16T10:44:02;14.10;99.90
23520;DHT22;11936;50.820;4.336;2023-05-16T10:46:30;14.30;99.90
23520;DHT22;11936;50.820;4.336;2023-05-16T10:48:56;14.40;99.70
23520;DHT22;11936;50.820;4.336;2023-05-16T10:53:51;14.40;98.90
23520;DHT22;11936;50.820;4.336;2023-05-16T10:56:25;14.50;98.40
23520;DHT22;11936;50.820;4.336;2023-05-16T10:58:53;14.70;98.40
23520;DHT22;11936;50.820;4.336;2023-05-16T11:01:30;14.70;98.70
23520;DHT22;11936;50.820;4.336;2023-05-16T11:06:23;14.90;98.40
23520;DHT22;11936;50.820;4.336;2023-05-16T11:11:51;14.90;97.60
23520;DHT22;11936;50.820;4.336;2023-05-16T11:17:11;15.20;97.80
23520;DHT22;11936;50.820;4.336;2023-05-16T11:19:53;15.20;96.80
23520;DHT22;11936;50.820;4.336;2023-05-16T11:25:08;15.00;98.40
23520;DHT22;11936;50.820;4.336;2023-05-16T11:27:45;15.10;97.90
23520;DHT22;11936;50.820;4.336;2023-05-16T11:30:12;15.20;97.30
23520;DHT22;11936;50.820;4.336;2023-05-16T11:32:43;15.20;97.20
23520;DHT22;11936;50.820;4.336;2023-05-16T11:35:14;15.10;96.40
23520;DHT22;11936;50.820;4.336;2023-05-16T11:37:40;15.20;97.80
23520;DHT22;11936;50.820;4.336;2023-05-16T11:40:07;15.10;98.30
23520;DHT22;11936;50.820;4.336;2023-05-16T11:42:42;14.90;97.30
23520;DHT22;11936;50.820;4.336;2023-05-16T11:45:14;14.70;98.20
23520;DHT22;11936;50.820;4.336;2023-05-16T11:47:42;14.90;97.60
23520;DHT22;11936;50.820;4.336;2023-05-16T11:50:13;15.00;96.90
23520;DHT22;11936;50.820;4.336;2023-05-16T11:52:41;15.00;97.20
23520;DHT22;11936;50.820;4.336;2023-05-16T11:55:08;14.80;97.30
23520;DHT22;11936;50.820;4.336;2023-05-16T11:57:38;14.80;98.30
23520;DHT22;11936;50.820;4.336;2023-05-16T12:00:13;14.90;98.00
23520;DHT22;11936;50.820;4.336;2023-05-16T12:02:39;15.00;99.50
23520;DHT22;11936;50.820;4.336;2023-05-16T12:05:08;15.20;97.20
23520;DHT22;11936;50.820;4.336;2023-05-16T12:07:35;15.10;96.60
23520;DHT22;11936;50.820;4.336;2023-05-16T12:10:09;14.90;97.50
23520;DHT22;11936;50.820;4.336;2023-05-16T12:12:36;14.90;97.30
23520;DHT22;11936;50.820;4.336;2023-05-16T12:15:03;15.10;98.20
23520;DHT22;11936;50.820;4.336;2023-05-16T12:17:31;15.00;96.30
23520;DHT22;11936;50.820;4.336;2023-05-16T12:19:57;15.00;96.70
23520;DHT22;11936;50.820;4.336;2023-05-16T12:22:24;15.10;97.30
23520;DHT22;11936;50.820;4.336;2023-05-16T12:24:50;15.20;97.70
23520;DHT22;11936;50.820;4.336;2023-05-16T12:27:24;15.10;96.00
23520;DHT22;11936;50.820;4.336;2023-05-16T12:29:49;14.90;96.00
23520;DHT22;11936;50.820;4.336;2023-05-16T12:32:19;15.00;96.20
23520;DHT22;11936;50.820;4.336;2023-05-16T12:34:52;15.10;96.80
23520;DHT22;11936;50.820;4.336;2023-05-16T12:37:20;15.10;94.70
23520;DHT22;11936;50.820;4.336;2023-05-16T12:39:46;14.80;93.80
23520;DHT22;11936;50.820;4.336;2023-05-16T12:42:13;14.80;94.90
23520;DHT22;11936;50.820;4.336;2023-05-16T12:44:39;14.90;93.60
23520;DHT22;11936;50.820;4.336;2023-05-16T12:47:12;15.00;94.10
23520;DHT22;11936;50.820;4.336;2023-05-16T12:49:44;15.10;94.40
23520;DHT22;11936;50.820;4.336;2023-05-16T12:52:16;15.40;92.80
23520;DHT22;11936;50.820;4.336;2023-05-16T12:54:43;15.50;93.20
23520;DHT22;11936;50.820;4.336;2023-05-16T12:57:09;15.40;94.10
23520;DHT22;11936;50.820;4.336;2023-05-16T12:59:35;15.40;93.50
23520;DHT22;11936;50.820;4.336;2023-05-16T13:02:01;15.50;93.60
23520;DHT22;11936;50.820;4.336;2023-05-16T13:04:28;15.40;92.40
23520;DHT22;11936;50.820;4.336;2023-05-16T13:06:54;15.40;93.20
23520;DHT22;11936;50.820;4.336;2023-05-16T13:09:20;15.50;92.60
23520;DHT22;11936;50.820;4.336;2023-05-16T13:11:46;15.50;92.20
23520;DHT22;11936;50.820;4.336;2023-05-16T13:14:12;15.50;92.60
23520;DHT22;11936;50.820;4.336;2023-05-16T13:16:38;15.40;92.90
23520;DHT22;11936;50.820;4.336;2023-05-16T13:19:03;15.60;92.40
23520;DHT22;11936;50.820;4.336;2023-05-16T13:21:30;15.50;93.30
23520;DHT22;11936;50.820;4.336;2023-05-16T13:23:57;15.50;93.10
23520;DHT22;11936;50.820;4.336;2023-05-16T13:26:23;15.40;93.60
23520;DHT22;11936;50.820;4.336;2023-05-16T13:28:48;15.40;93.60
23520;DHT22;11936;50.820;4.336;2023-05-16T13:31:17;15.30;92.50
23520;DHT22;11936;50.820;4.336;2023-05-16T13:33:43;15.10;93.00
23520;DHT22;11936;50.820;4.336;2023-05-16T13:36:09;15.30;94.30
23520;DHT22;11936;50.820;4.336;2023-05-16T13:38:35;15.40;92.70
23520;DHT22;11936;50.820;4.336;2023-05-16T13:41:01;15.50;92.80
23520;DHT22;11936;50.820;4.336;2023-05-16T13:43:27;15.70;93.10
23520;DHT22;11936;50.820;4.336;2023-05-16T13:45:52;16.00;93.20
23520;DHT22;11936;50.820;4.336;2023-05-16T13:48:18;16.00;92.90
23520;DHT22;11936;50.820;4.336;2023-05-16T13:50:44;15.90;91.80
23520;DHT22;11936;50.820;4.336;2023-05-16T13:53:09;15.70;92.60
23520;DHT22;11936;50.820;4.336;2023-05-16T13:55:35;15.70;93.10
23520;DHT22;11936;50.820;4.336;2023-05-16T13:58:01;15.90;92.70
23520;DHT22;11936;50.820;4.336;2023-05-16T14:00:28;16.00;92.50
23520;DHT22;11936;50.820;4.336;2023-05-16T14:02:53;16.10;93.10
23520;DHT22;11936;50.820;4.336;2023-05-16T14:05:19;16.10;93.80
23520;DHT22;11936;50.820;4.336;2023-05-16T14:07:45;16.20;93.30
23520;DHT22;11936;50.820;4.336;2023-05-16T14:10:10;16.40;93.40
23520;DHT22;11936;50.820;4.336;2023-05-16T14:12:36;16.50;91.60
23520;DHT22;11936;50.820;4.336;2023-05-16T14:15:03;16.70;91.50
23520;DHT22;11936;50.820;4.336;2023-05-16T14:17:29;16.50;90.30
23520;DHT22;11936;50.820;4.336;2023-05-16T14:19:55;16.40;90.70
23520;DHT22;11936;50.820;4.336;2023-05-16T14:22:20;16.10;90.90
23520;DHT22;11936;50.820;4.336;2023-05-16T14:24:46;16.10;90.90
23520;DHT22;11936;50.820;4.336;2023-05-16T14:27:11;16.30;92.50
23520;DHT22;11936;50.820;4.336;2023-05-16T14:29:39;16.50;92.20
23520;DHT22;11936;50.820;4.336;2023-05-16T14:32:05;16.60;91.30
23520;DHT22;11936;50.820;4.336;2023-05-16T14:34:31;16.80;90.50
23520;DHT22;11936;50.820;4.336;2023-05-16T14:36:57;17.10;90.60
23520;DHT22;11936;50.820;4.336;2023-05-16T14:39:22;17.20;90.40
23520;DHT22;11936;50.820;4.336;2023-05-16T14:41:48;16.60;89.00
23520;DHT22;11936;50.820;4.336;2023-05-16T14:44:14;16.20;90.20
23520;DHT22;11936;50.820;4.336;2023-05-16T14:46:39;16.00;90.50
23520;DHT22;11936;50.820;4.336;2023-05-16T14:49:05;16.00;91.10
23520;DHT22;11936;50.820;4.336;2023-05-16T14:51:31;16.00;91.80
23520;DHT22;11936;50.820;4.336;2023-05-16T14:53:56;16.00;91.30
23520;DHT22;11936;50.820;4.336;2023-05-16T14:56:22;16.10;91.20
23520;DHT22;11936;50.820;4.336;2023-05-16T14:58:51;16.20;91.60
23520;DHT22;11936;50.820;4.336;2023-05-16T15:01:16;16.30;91.50
23520;DHT22;11936;50.820;4.336;2023-05-16T15:03:46;16.40;91.40
23520;DHT22;11936;50.820;4.336;2023-05-16T15:06:12;16.10;91.40
23520;DHT22;11936;50.820;4.336;2023-05-16T15:08:37;16.10;92.00
23520;DHT22;11936;50.820;4.336;2023-05-16T15:11:03;16.20;92.50
23520;DHT22;11936;50.820;4.336;2023-05-16T15:13:29;16.30;92.70
23520;DHT22;11936;50.820;4.336;2023-05-16T15:15:55;16.40;92.70
23520;DHT22;11936;50.820;4.336;2023-05-16T15:18:22;16.60;92.20
23520;DHT22;11936;50.820;4.336;2023-05-16T15:20:47;16.80;91.40
23520;DHT22;11936;50.820;4.336;2023-05-16T15:23:13;16.90;90.50
23520;DHT22;11936;50.820;4.336;2023-05-16T15:25:39;17.20;91.80
23520;DHT22;11936;50.820;4.336;2023-05-16T15:28:05;17.30;91.40
23520;DHT22;11936;50.820;4.336;2023-05-16T15:30:30;17.50;90.90
23520;DHT22;11936;50.820;4.336;2023-05-16T15:32:56;17.50;91.20
23520;DHT22;11936;50.820;4.336;2023-05-16T15:35:22;17.50;90.90
23520;DHT22;11936;50.820;4.336;2023-05-16T15:37:47;17.10;90.30
23520;DHT22;11936;50.820;4.336;2023-05-16T15:40:13;16.50;90.60
23520;DHT22;11936;50.820;4.336;2023-05-16T15:42:39;15.90;91.40
23520;DHT22;11936;50.820;4.336;2023-05-16T15:45:10;15.90;91.90
23520;DHT22;11936;50.820;4.336;2023-05-16T15:47:36;16.10;92.60
23520;DHT22;11936;50.820;4.336;2023-05-16T15:50:05;16.30;92.10
23520;DHT22;11936;50.820;4.336;2023-05-16T15:52:31;16.50;91.80
23520;DHT22;11936;50.820;4.336;2023-05-16T15:54:57;16.40;91.50
23520;DHT22;11936;50.820;4.336;2023-05-16T15:57:22;16.60;91.70